Time;durP1;ratioP1;P1;durP2;ratioP2;P2;SDS_P1;SDS_P2;PMS_P1;PMS_P2;Temp;Humidity;BMP_temperature;BMP_pressure;BME280_temperature;BME280_humidity;BME280_pressure;Samples;Min_cycle;Max_cycle;Signal;HPM_P1;HPM_P2
2021/09/21 00:01:40;;;;;;;6.80;4.53;;;13.50;44.50;;;;;;5057054;28;20463;-71
2021/09/21 00:04:07;;;;;;;6.20;5.10;;;13.50;49.80;;;;;;5057485;28;20505;-69
2021/09/21 00:06:34;;;;;;;7.83;5.20;;;13.50;52.70;;;;;;5056966;28;20510;-71
2021/09/21 00:09:01;;;;;;;7.30;4.83;;;13.50;53.70;;;;;;5056892;28;20466;-71
2021/09/21 00:11:29;;;;;;;5.77;4.70;;;13.60;53.80;;;;;;5057071;28;20478;-70
2021/09/21 00:13:57;;;;;;;5.70;5.10;;;13.50;53.10;;;;;;5056997;28;20476;-70
2021/09/21 00:16:24;;;;;;;5.93;4.50;;;13.50;55.30;;;;;;5056641;28;20497;-71
2021/09/21 00:18:51;;;;;;;6.63;4.70;;;13.50;52.30;;;;;;5057129;28;20769;-70
2021/09/21 00:21:17;;;;;;;9.17;4.90;;;13.50;56.60;;;;;;5056859;28;20541;-70
2021/09/21 00:23:44;;;;;;;5.77;5.03;;;13.50;52.00;;;;;;5056463;28;20917;-70
2021/09/21 00:26:11;;;;;;;6.70;4.97;;;13.50;52.90;;;;;;5056223;28;20459;-70
2021/09/21 00:28:39;;;;;;;6.47;4.70;;;13.40;61.40;;;;;;5056524;28;20469;-70
2021/09/21 00:31:09;;;;;;;5.20;4.70;;;13.40;60.90;;;;;;5056498;28;20464;-69
2021/09/21 00:33:46;;;;;;;5.97;4.53;;;13.40;66.20;;;;;;5056376;28;20508;-71
2021/09/21 00:36:15;;;;;;;8.13;5.30;;;13.40;66.30;;;;;;5056312;28;20456;-71
2021/09/21 00:38:44;;;;;;;7.10;4.77;;;13.40;73.70;;;;;;5056374;28;20462;-73
2021/09/21 00:41:11;;;;;;;5.83;4.80;;;13.40;75.10;;;;;;5056594;28;20555;-70
2021/09/21 00:43:40;;;;;;;4.50;4.10;;;13.30;75.20;;;;;;5056409;28;20475;-69
2021/09/21 00:46:07;;;;;;;6.87;4.73;;;13.30;87.20;;;;;;5056121;28;20444;-70
2021/09/21 00:48:34;;;;;;;4.77;4.20;;;13.30;90.30;;;;;;5056419;28;20758;-69
2021/09/21 00:51:00;;;;;;;5.77;4.50;;;13.30;89.90;;;;;;5056610;28;20779;-71
2021/09/21 00:53:29;;;;;;;5.10;4.40;;;13.30;77.30;;;;;;5056394;28;20462;-71
2021/09/21 00:55:55;;;;;;;8.50;5.40;;;13.40;82.80;;;;;;5055927;28;21037;-71
2021/09/21 00:58:22;;;;;;;5.10;4.13;;;13.40;80.80;;;;;;5056130;28;20979;-71
2021/09/21 01:00:50;;;;;;;5.73;5.03;;;13.40;79.90;;;;;;5055953;28;20455;-71
2021/09/21 01:03:18;;;;;;;5.93;4.83;;;13.30;83.10;;;;;;5056224;28;20837;-71
2021/09/21 01:05:45;;;;;;;5.50;5.00;;;13.30;80.30;;;;;;5056156;28;20832;-71
2021/09/21 01:08:12;;;;;;;11.83;5.10;;;13.30;80.60;;;;;;5056132;28;20486;-70
2021/09/21 01:10:39;;;;;;;5.70;4.90;;;13.30;81.00;;;;;;5055964;28;20455;-70
2021/09/21 01:13:05;;;;;;;6.60;4.53;;;13.30;82.60;;;;;;5055500;28;20455;-70
2021/09/21 01:15:32;;;;;;;4.13;3.73;;;13.30;83.80;;;;;;5055482;28;20487;-70
2021/09/21 01:18:00;;;;;;;4.73;4.13;;;13.30;85.50;;;;;;5055492;28;20459;-70
2021/09/21 01:20:28;;;;;;;6.03;4.53;;;13.30;87.70;;;;;;5055684;28;20463;-70
2021/09/21 01:22:56;;;;;;;6.50;4.27;;;13.30;85.30;;;;;;5055063;28;20466;-70
2021/09/21 01:25:23;;;;;;;6.67;4.63;;;13.30;87.30;;;;;;5055920;28;20464;-70
2021/09/21 01:27:49;;;;;;;6.10;5.10;;;13.30;87.70;;;;;;5055602;28;20510;-70
2021/09/21 01:30:19;;;;;;;4.93;4.07;;;13.30;86.90;;;;;;5055301;28;20773;-70
2021/09/21 01:32:46;;;;;;;6.00;3.63;;;13.30;86.00;;;;;;5055934;28;20463;-70
2021/09/21 01:35:15;;;;;;;7.67;4.10;;;13.40;80.40;;;;;;5055323;28;20459;-71
2021/09/21 01:37:46;;;;;;;4.60;4.20;;;13.30;76.40;;;;;;5055548;28;20773;-71
2021/09/21 01:40:14;;;;;;;7.87;4.10;;;13.40;75.50;;;;;;5055928;28;20774;-70
2021/09/21 01:42:43;;;;;;;6.13;4.40;;;13.30;75.70;;;;;;5055471;28;20556;-70
2021/09/21 01:45:11;;;;;;;5.10;4.27;;;13.30;76.50;;;;;;5055505;28;20781;-70
2021/09/21 01:47:38;;;;;;;4.40;4.00;;;13.30;74.50;;;;;;5055146;28;20490;-70
2021/09/21 01:52:56;;;;;;;5.07;4.57;;;13.20;70.60;;;;;;5052469;28;20451;-71
2021/09/21 01:58:46;;;;;;;4.50;3.90;;;13.20;76.20;;;;;;5057333;28;20425;-71
2021/09/21 02:01:07;;;;;;;4.63;4.20;;;13.20;75.00;;;;;;5056289;28;20475;-71
2021/09/21 02:03:34;;;;;;;5.57;4.27;;;13.20;71.60;;;;;;5056568;28;20456;-71
2021/09/21 02:06:01;;;;;;;8.43;3.93;;;13.10;77.20;;;;;;5055416;28;20457;-72
2021/09/21 02:08:27;;;;;;;5.23;4.70;;;13.10;84.20;;;;;;5058359;28;20553;-71
2021/09/21 02:10:55;;;;;;;6.73;5.00;;;13.10;87.20;;;;;;5055909;28;20461;-71
2021/09/21 02:13:22;;;;;;;5.83;4.20;;;13.10;90.30;;;;;;5057406;28;20456;-71
2021/09/21 02:15:49;;;;;;;5.40;4.40;;;13.10;87.70;;;;;;5056035;28;20482;-71
2021/09/21 02:18:16;;;;;;;5.33;4.70;;;13.10;91.40;;;;;;5056803;28;20455;-71
2021/09/21 02:20:43;;;;;;;8.00;5.07;;;13.10;93.70;;;;;;5057304;28;20480;-71
2021/09/21 02:23:09;;;;;;;5.97;4.10;;;13.10;90.00;;;;;;5056834;28;20463;-71
2021/09/21 02:25:36;;;;;;;5.40;4.33;;;13.10;93.80;;;;;;5055055;28;20892;-71
2021/09/21 02:28:04;;;;;;;5.10;3.87;;;13.10;93.70;;;;;;5055157;28;20494;-71
2021/09/21 02:30:31;;;;;;;5.97;4.70;;;13.10;93.40;;;;;;5056436;28;20458;-71
2021/09/21 02:32:58;;;;;;;5.47;4.50;;;13.00;95.30;;;;;;5058862;28;20494;-71
2021/09/21 02:35:25;;;;;;;4.50;3.73;;;13.00;93.50;;;;;;5059662;28;20462;-71
2021/09/21 02:37:52;;;;;;;5.00;4.10;;;13.00;94.10;;;;;;5058615;28;20494;-71
2021/09/21 02:40:19;;;;;;;4.93;3.77;;;13.00;97.60;;;;;;5059028;28;20467;-71
2021/09/21 02:42:46;;;;;;;3.97;3.67;;;13.10;95.10;;;;;;5058733;28;20463;-71
2021/09/21 02:45:14;;;;;;;6.23;4.57;;;13.10;91.90;;;;;;5059046;28;20459;-71
2021/09/21 02:47:41;;;;;;;5.40;4.30;;;13.10;89.50;;;;;;5058533;28;20481;-72
2021/09/21 02:50:09;;;;;;;4.90;4.00;;;13.10;91.90;;;;;;5058615;28;20468;-71
2021/09/21 02:52:36;;;;;;;4.90;4.40;;;13.10;86.40;;;;;;5058868;28;20466;-71
2021/09/21 02:55:03;;;;;;;5.20;4.60;;;13.10;83.50;;;;;;5058598;28;20468;-71
2021/09/21 02:57:31;;;;;;;6.90;4.40;;;13.10;79.60;;;;;;5058508;28;20454;-71
2021/09/21 02:59:58;;;;;;;8.37;4.47;;;13.10;70.70;;;;;;5058412;28;20486;-71
2021/09/21 03:02:29;;;;;;;5.10;4.07;;;13.10;72.30;;;;;;5058261;28;20477;-71
2021/09/21 03:04:58;;;;;;;4.37;3.97;;;13.10;71.30;;;;;;5058341;28;20440;-71
2021/09/21 03:07:33;;;;;;;5.03;4.53;;;13.10;73.30;;;;;;5058327;28;20821;-71
2021/09/21 03:10:17;;;;;;;5.10;4.60;;;13.10;83.30;;;;;;5058265;28;20461;-71
2021/09/21 03:18:14;;;;;;;5.07;4.57;;;13.10;74.50;;;;;;5057914;28;20421;-71
2021/09/21 03:20:40;;;;;;;5.17;4.33;;;13.10;78.10;;;;;;5058049;28;20471;-70
2021/09/21 03:23:07;;;;;;;5.47;4.80;;;13.10;84.50;;;;;;5057773;28;20490;-71
2021/09/21 03:25:34;;;;;;;5.40;4.67;;;13.10;86.00;;;;;;5057264;28;20460;-70
2021/09/21 03:28:01;;;;;;;5.40;4.27;;;13.10;83.70;;;;;;5057667;28;21007;-71
2021/09/21 03:30:27;;;;;;;7.77;4.57;;;13.10;88.30;;;;;;5058038;28;20460;-72
2021/09/21 03:32:54;;;;;;;6.37;4.20;;;13.10;90.30;;;;;;5057700;28;20466;-71
2021/09/21 03:35:22;;;;;;;6.37;4.67;;;13.10;90.90;;;;;;5057901;28;20461;-71
2021/09/21 03:37:49;;;;;;;8.10;4.47;;;13.10;94.10;;;;;;5058281;28;20461;-72
2021/09/21 03:40:16;;;;;;;7.87;4.90;;;13.00;94.00;;;;;;5058867;28;20473;-72
2021/09/21 03:42:43;;;;;;;7.13;4.60;;;13.00;97.10;;;;;;5058580;28;20462;-72
2021/09/21 03:45:11;;;;;;;5.07;4.40;;;13.00;96.80;;;;;;5059420;28;20545;-72
2021/09/21 03:47:38;;;;;;;5.37;4.83;;;13.00;99.40;;;;;;5058804;28;20847;-72
2021/09/21 03:50:08;;;;;;;4.90;4.40;;;13.00;99.90;;;;;;5058971;28;20788;-72
2021/09/21 03:52:37;;;;;;;5.10;4.07;;;13.00;99.90;;;;;;5058198;28;20881;-72
2021/09/21 03:55:04;;;;;;;5.90;4.87;;;13.00;99.90;;;;;;5058123;28;20458;-72
2021/09/21 03:57:31;;;;;;;6.03;5.53;;;13.00;99.90;;;;;;5058212;28;20465;-72
2021/09/21 03:59:58;;;;;;;6.10;4.87;;;13.00;99.90;;;;;;5058286;28;20459;-73
2021/09/21 04:02:24;;;;;;;6.90;5.63;;;12.90;99.90;;;;;;5057825;28;20915;-72
2021/09/21 04:04:51;;;;;;;7.40;4.97;;;13.00;99.90;;;;;;5057948;28;20472;-71
2021/09/21 04:07:18;;;;;;;7.13;4.70;;;12.90;99.90;;;;;;5057958;28;20460;-71
2021/09/21 04:09:46;;;;;;;8.07;4.50;;;12.90;99.90;;;;;;5058218;28;20803;-72
2021/09/21 04:12:12;;;;;;;5.23;4.73;;;12.90;99.90;;;;;;5057985;28;20456;-72
2021/09/21 04:14:39;;;;;;;7.93;4.53;;;12.90;99.90;;;;;;5058873;28;20459;-71
2021/09/21 04:17:06;;;;;;;6.83;5.33;;;12.90;99.90;;;;;;5058047;28;20574;-72
2021/09/21 04:19:33;;;;;;;6.17;5.07;;;12.90;99.90;;;;;;5058359;28;20475;-72
2021/09/21 04:21:59;;;;;;;6.60;4.80;;;12.90;99.90;;;;;;5059218;28;20757;-72
2021/09/21 04:24:26;;;;;;;5.03;4.40;;;12.90;99.90;;;;;;5058929;28;20961;-72
2021/09/21 04:26:54;;;;;;;5.97;4.60;;;12.90;99.90;;;;;;5059788;28;20462;-72
2021/09/21 04:29:21;;;;;;;7.13;4.57;;;12.90;99.90;;;;;;5058488;28;20486;-72
2021/09/21 04:31:51;;;;;;;8.10;5.03;;;12.90;99.90;;;;;;5058293;28;20481;-72
2021/09/21 04:34:18;;;;;;;7.00;4.83;;;12.90;99.90;;;;;;5058094;28;20455;-72
2021/09/21 04:36:45;;;;;;;4.90;4.37;;;12.90;99.90;;;;;;5058286;28;20460;-72
2021/09/21 04:39:11;;;;;;;6.53;4.87;;;12.90;99.90;;;;;;5058297;28;20452;-72
2021/09/21 04:41:39;;;;;;;5.30;4.73;;;12.90;99.90;;;;;;5058081;28;20482;-72
2021/09/21 04:44:07;;;;;;;8.20;5.07;;;12.90;99.90;;;;;;5057554;28;20467;-72
2021/09/21 04:46:35;;;;;;;9.00;5.20;;;12.90;99.90;;;;;;5057407;28;20462;-72
2021/09/21 04:49:04;;;;;;;7.70;5.10;;;12.90;99.90;;;;;;5057749;28;20575;-72
2021/09/21 04:51:31;;;;;;;7.00;5.20;;;12.90;99.90;;;;;;5057925;28;20462;-72
2021/09/21 04:53:58;;;;;;;5.47;4.83;;;12.90;99.90;;;;;;5056652;28;20529;-72
2021/09/21 04:56:25;;;;;;;8.07;5.23;;;12.90;99.90;;;;;;5058064;28;20463;-72
2021/09/21 04:58:52;;;;;;;13.77;10.57;;;12.90;99.90;;;;;;5058708;28;20480;-72
2021/09/21 05:01:20;;;;;;;16.67;10.30;;;12.90;99.90;;;;;;5057303;28;20471;-73
2021/09/21 05:03:47;;;;;;;8.73;5.57;;;12.80;99.90;;;;;;5057118;28;20455;-73
2021/09/21 05:06:13;;;;;;;6.43;5.77;;;12.90;99.90;;;;;;5057449;28;20471;-72
2021/09/21 05:08:40;;;;;;;7.67;5.30;;;12.80;99.90;;;;;;5058103;28;20479;-72
2021/09/21 05:11:07;;;;;;;5.47;4.90;;;12.80;99.90;;;;;;5057682;28;20461;-72
2021/09/21 05:13:34;;;;;;;6.27;5.00;;;12.80;99.90;;;;;;5057450;28;20790;-72
2021/09/21 05:16:00;;;;;;;6.20;5.33;;;12.80;99.90;;;;;;5058190;28;20490;-72
2021/09/21 05:18:28;;;;;;;8.20;4.83;;;12.80;99.90;;;;;;5057358;28;20459;-72
2021/09/21 05:20:55;;;;;;;7.53;4.97;;;12.80;99.90;;;;;;5058078;28;20475;-72
2021/09/21 05:23:22;;;;;;;7.77;5.00;;;12.80;99.90;;;;;;5057385;28;20464;-72
2021/09/21 05:25:49;;;;;;;6.40;5.07;;;12.80;99.90;;;;;;5057642;28;20793;-72
2021/09/21 05:28:16;;;;;;;10.13;5.93;;;12.90;99.90;;;;;;5057341;28;20495;-72
2021/09/21 05:30:42;;;;;;;6.53;4.77;;;12.90;99.90;;;;;;5057419;28;20454;-72
2021/09/21 05:33:09;;;;;;;7.67;5.03;;;12.90;99.90;;;;;;5057384;28;20464;-72
2021/09/21 05:35:37;;;;;;;5.67;4.53;;;13.00;96.20;;;;;;5057149;28;20462;-72
2021/09/21 05:38:04;;;;;;;6.73;5.30;;;13.00;91.60;;;;;;5056090;28;20465;-72
2021/09/21 05:40:31;;;;;;;5.63;5.07;;;13.00;88.90;;;;;;5056595;28;20467;-72
2021/09/21 05:42:57;;;;;;;6.13;4.93;;;13.10;74.40;;;;;;5057202;28;20453;-72
2021/09/21 05:45:24;;;;;;;6.03;5.13;;;13.10;58.20;;;;;;5057383;28;20452;-72
2021/09/21 05:47:51;;;;;;;5.43;4.90;;;13.20;54.30;;;;;;5057099;28;20484;-73
2021/09/21 05:50:18;;;;;;;5.20;4.70;;;13.20;46.70;;;;;;5055764;28;20473;-72
2021/09/21 05:52:46;;;;;;;7.63;4.47;;;13.20;31.20;;;;;;5056133;28;20469;-72
2021/09/21 05:55:13;;;;;;;8.13;4.57;;;13.30;24.70;;;;;;5056249;28;20499;-71
2021/09/21 05:57:42;;;;;;;6.40;4.93;;;13.30;19.10;;;;;;5056240;28;20461;-71
2021/09/21 06:00:10;;;;;;;6.87;5.00;;;13.40;17.70;;;;;;5055739;28;20524;-72
2021/09/21 06:02:37;;;;;;;5.23;4.20;;;13.40;7.40;;;;;;5055690;28;20468;-72
2021/09/21 06:05:04;;;;;;;6.23;5.60;;;13.40;1.00;;;;;;5055659;28;20464;-72
2021/09/21 06:07:31;;;;;;;5.77;4.80;;;13.40;1.00;;;;;;5055801;28;20912;-72
2021/09/21 06:09:59;;;;;;;5.50;4.70;;;13.40;1.00;;;;;;5055635;28;20484;-73
2021/09/21 06:12:27;;;;;;;7.27;5.43;;;13.50;1.00;;;;;;5056568;28;20723;-72
2021/09/21 06:14:54;;;;;;;8.37;4.93;;;13.50;1.00;;;;;;5055915;28;20459;-72
2021/09/21 06:17:20;;;;;;;8.80;4.73;;;13.50;1.00;;;;;;5055159;28;20450;-72
2021/09/21 06:19:47;;;;;;;4.77;4.27;;;13.60;1.00;;;;;;5056060;28;20458;-72
2021/09/21 06:22:14;;;;;;;7.23;4.80;;;13.60;1.00;;;;;;5055920;28;20464;-72
2021/09/21 06:24:41;;;;;;;5.70;5.10;;;13.60;1.00;;;;;;5055203;28;20793;-73
2021/09/21 06:27:09;;;;;;;7.53;5.20;;;13.70;1.00;;;;;;5055979;28;20488;-72
2021/09/21 06:29:35;;;;;;;7.60;5.03;;;13.80;1.00;;;;;;5055647;28;20827;-72
2021/09/21 06:32:03;;;;;;;7.43;5.50;;;13.80;1.00;;;;;;5055134;28;20466;-72
2021/09/21 06:34:30;;;;;;;9.00;5.37;;;13.90;1.00;;;;;;5054779;28;20924;-72
2021/09/21 06:36:57;;;;;;;8.70;5.20;;;13.90;1.00;;;;;;5055335;28;20469;-72
2021/09/21 06:39:24;;;;;;;7.13;5.60;;;14.00;1.00;;;;;;5055061;28;20526;-72
2021/09/21 06:41:50;;;;;;;7.73;6.63;;;14.10;1.00;;;;;;5056075;28;20925;-72
2021/09/21 06:44:19;;;;;;;7.00;6.23;;;14.10;1.00;;;;;;5056199;28;20935;-72
2021/09/21 06:46:45;;;;;;;7.23;5.80;;;14.20;1.00;;;;;;5056480;28;20462;-72
2021/09/21 06:49:12;;;;;;;7.90;6.97;;;14.20;1.00;;;;;;5057593;28;20505;-72
2021/09/21 06:51:41;;;;;;;10.47;6.20;;;14.10;1.00;;;;;;5056528;28;20470;-73
2021/09/21 06:54:08;;;;;;;10.00;7.03;;;14.10;1.00;;;;;;5055931;28;20541;-72
2021/09/21 06:56:35;;;;;;;8.40;5.53;;;14.10;1.00;;;;;;5056527;28;20466;-72
2021/09/21 06:59:01;;;;;;;6.80;5.47;;;14.10;1.00;;;;;;5056904;28;20789;-71
2021/09/21 07:01:29;;;;;;;6.57;5.67;;;14.20;1.00;;;;;;5057100;28;20459;-72
2021/09/21 07:03:56;;;;;;;9.93;6.77;;;14.30;1.00;;;;;;5058492;28;20470;-73
2021/09/21 07:06:23;;;;;;;7.73;6.43;;;14.40;1.00;;;;;;5056708;28;20791;-72
2021/09/21 07:08:50;;;;;;;8.50;6.00;;;14.50;1.00;;;;;;5056571;28;20561;-73
2021/09/21 07:11:18;;;;;;;7.57;6.30;;;14.60;1.00;;;;;;5056958;28;20460;-73
2021/09/21 07:13:45;;;;;;;11.13;6.50;;;14.70;99.90;;;;;;5057733;28;20540;-73
2021/09/21 07:16:12;;;;;;;7.00;6.30;;;14.70;99.90;;;;;;5057178;28;20997;-73
2021/09/21 07:18:41;;;;;;;6.17;5.20;;;14.70;99.90;;;;;;5061005;28;20458;-73
2021/09/21 07:21:07;;;;;;;5.53;4.93;;;14.70;99.90;;;;;;5062668;28;20451;-73
2021/09/21 07:23:34;;;;;;;9.43;4.83;;;14.70;99.90;;;;;;5061935;28;20758;-73
2021/09/21 07:26:02;;;;;;;6.03;4.50;;;14.80;99.90;;;;;;5060688;28;20464;-73
2021/09/21 07:28:29;;;;;;;6.60;4.80;;;14.80;99.90;;;;;;5060819;28;20934;-73
2021/09/21 07:30:55;;;;;;;5.87;4.70;;;14.80;99.90;;;;;;5060931;28;20459;-72
2021/09/21 07:33:22;;;;;;;5.00;4.50;;;14.90;99.90;;;;;;5060748;28;20466;-73
2021/09/21 07:35:50;;;;;;;7.77;4.53;;;14.90;99.90;;;;;;5060867;28;20463;-72
2021/09/21 07:38:19;;;;;;;8.53;4.87;;;15.00;99.90;;;;;;5061513;28;20917;-73
2021/09/21 07:40:46;;;;;;;9.80;5.93;;;15.10;99.90;;;;;;5061366;28;20459;-72
2021/09/21 07:43:13;;;;;;;8.30;5.40;;;15.10;99.90;;;;;;5061375;28;20451;-72
2021/09/21 07:45:39;;;;;;;8.70;4.93;;;15.20;99.90;;;;;;5062680;28;20462;-72
2021/09/21 07:48:07;;;;;;;10.30;4.70;;;15.20;99.90;;;;;;5064192;28;20462;-72
2021/09/21 07:50:34;;;;;;;5.57;3.90;;;15.20;99.90;;;;;;5065318;28;20479;-72
2021/09/21 07:53:02;;;;;;;6.27;4.40;;;15.20;99.90;;;;;;5062677;28;20830;-72
2021/09/21 07:55:29;;;;;;;6.40;5.23;;;15.30;99.90;;;;;;5062271;28;20911;-72
2021/09/21 07:57:56;;;;;;;5.63;4.63;;;15.30;99.90;;;;;;5061127;28;20464;-72
2021/09/21 08:00:24;;;;;;;7.37;4.70;;;15.40;99.90;;;;;;5060067;28;20460;-72
2021/09/21 08:02:51;;;;;;;6.50;4.40;;;15.40;99.90;;;;;;5060106;28;20883;-71
2021/09/21 08:05:19;;;;;;;6.30;4.03;;;15.50;99.90;;;;;;5060278;28;20460;-72
2021/09/21 08:07:45;;;;;;;4.37;3.33;;;15.60;99.90;;;;;;5060163;28;20460;-72
2021/09/21 08:10:15;;;;;;;4.03;3.17;;;15.70;99.90;;;;;;5059738;28;20482;-72
2021/09/21 08:12:42;;;;;;;4.33;3.30;;;15.80;99.90;;;;;;5059729;28;20462;-72
2021/09/21 08:15:10;;;;;;;4.07;3.20;;;16.00;99.90;;;;;;5061382;28;20491;-72
2021/09/21 08:17:37;;;;;;;5.80;3.63;;;16.00;99.90;;;;;;5062622;28;20444;-72
2021/09/21 08:20:05;;;;;;;4.10;3.50;;;16.00;99.90;;;;;;5061705;28;20455;-72
2021/09/21 08:22:32;;;;;;;8.23;3.53;;;16.00;99.90;;;;;;5063109;28;20457;-72
2021/09/21 08:25:01;;;;;;;3.67;3.17;;;15.90;1.00;;;;;;5064367;28;20498;-72
2021/09/21 08:27:30;;;;;;;4.20;2.97;;;15.90;1.00;;;;;;5062139;28;20456;-73
2021/09/21 08:29:57;;;;;;;4.27;3.60;;;15.90;1.00;;;;;;5060362;28;20575;-72
2021/09/21 08:32:24;;;;;;;4.93;3.63;;;15.80;1.00;;;;;;5063220;28;20451;-72
2021/09/21 08:34:50;;;;;;;5.00;3.83;;;15.80;1.00;;;;;;5064107;28;20470;-72
2021/09/21 08:37:17;;;;;;;3.50;3.20;;;15.80;1.00;;;;;;5064326;28;20460;-71
2021/09/21 08:39:44;;;;;;;5.33;3.20;;;15.80;1.00;;;;;;5063747;28;20527;-72
2021/09/21 08:42:11;;;;;;;4.77;2.97;;;15.80;1.00;;;;;;5064561;28;20765;-72
2021/09/21 08:44:40;;;;;;;5.90;4.57;;;16.00;1.00;;;;;;5064716;28;20456;-72
2021/09/21 08:47:07;;;;;;;6.10;4.60;;;16.10;1.00;;;;;;5064230;28;20465;-72
2021/09/21 08:49:34;;;;;;;9.27;3.43;;;16.20;1.00;;;;;;5064704;28;20471;-72
2021/09/21 08:52:01;;;;;;;4.00;2.97;;;16.30;1.00;;;;;;5063901;28;20467;-72
2021/09/21 08:54:28;;;;;;;6.37;3.43;;;16.30;1.00;;;;;;5062657;28;20460;-72
2021/09/21 08:56:55;;;;;;;6.17;3.57;;;16.30;1.00;;;;;;5062003;28;20483;-72
2021/09/21 08:59:29;;;;;;;6.63;5.33;;;16.30;1.00;;;;;;5061276;28;20467;-72
2021/09/21 09:02:03;;;;;;;8.00;3.10;;;16.30;1.00;;;;;;5061569;28;20754;-72
2021/09/21 09:04:30;;;;;;;5.43;3.50;;;16.30;1.00;;;;;;5061522;28;20737;-72
2021/09/21 09:06:58;;;;;;;4.60;3.53;;;16.30;1.00;;;;;;5062252;28;20490;-72
2021/09/21 09:09:27;;;;;;;5.27;3.40;;;16.30;1.00;;;;;;5061992;28;20494;-72
2021/09/21 09:11:55;;;;;;;6.97;3.90;;;16.40;1.00;;;;;;5061219;28;20996;-72
2021/09/21 09:14:23;;;;;;;6.80;4.63;;;16.40;99.90;;;;;;5062290;28;20459;-72
2021/09/21 09:16:53;;;;;;;8.77;6.00;;;16.40;1.00;;;;;;5057592;28;20480;-71
2021/09/21 09:19:22;;;;;;;4.10;3.40;;;16.40;99.90;;;;;;5057185;28;20498;-73
2021/09/21 09:21:49;;;;;;;6.70;3.27;;;16.40;99.90;;;;;;5058211;28;20463;-71
2021/09/21 09:24:18;;;;;;;3.53;3.13;;;16.40;99.90;;;;;;5058350;28;20460;-71
2021/09/21 09:26:46;;;;;;;3.17;2.63;;;16.40;99.90;;;;;;5060499;28;20458;-71
2021/09/21 09:29:14;;;;;;;3.60;3.20;;;16.40;99.90;;;;;;5059849;28;20480;-72
2021/09/21 09:31:43;;;;;;;3.70;3.40;;;16.20;99.90;;;;;;5061406;28;20455;-71
2021/09/21 09:34:12;;;;;;;3.90;3.23;;;16.10;99.90;;;;;;5056607;28;20478;-72
2021/09/21 09:36:46;;;;;;;4.83;3.07;;;16.00;99.90;;;;;;5056421;28;20585;-72
2021/09/21 09:39:13;;;;;;;5.67;4.00;;;16.10;99.90;;;;;;5056757;28;20455;-73
2021/09/21 09:41:41;;;;;;;3.67;2.90;;;16.10;99.90;;;;;;5058438;28;20478;-72
2021/09/21 09:44:09;;;;;;;7.13;3.27;;;16.20;99.90;;;;;;5058911;28;20469;-72
2021/09/21 09:46:49;;;;;;;9.10;3.23;;;16.20;99.90;;;;;;5057777;28;20482;-72
2021/09/21 09:49:21;;;;;;;3.83;3.20;;;16.30;99.90;;;;;;5058526;28;21001;-71
2021/09/21 09:51:50;;;;;;;3.90;3.50;;;16.30;99.90;;;;;;5060305;28;20451;-73
2021/09/21 09:54:17;;;;;;;4.20;3.80;;;16.20;99.90;;;;;;5061559;28;20447;-73
2021/09/21 09:56:44;;;;;;;4.47;3.17;;;16.10;99.90;;;;;;5060736;28;20475;-73
2021/09/21 09:59:14;;;;;;;4.43;3.27;;;16.10;99.90;;;;;;5062615;28;20447;-72
2021/09/21 10:01:41;;;;;;;4.20;3.80;;;16.10;99.90;;;;;;5060528;28;20521;-73
2021/09/21 10:04:08;;;;;;;6.13;4.20;;;16.10;99.90;;;;;;5058041;28;20455;-72
2021/09/21 10:06:35;;;;;;;4.50;3.60;;;16.00;99.90;;;;;;5058599;28;20474;-70
2021/09/21 10:09:03;;;;;;;4.10;3.70;;;16.00;99.90;;;;;;5059453;28;20467;-73
2021/09/21 10:11:32;;;;;;;4.67;3.47;;;15.90;99.90;;;;;;5060763;28;20459;-73
2021/09/21 10:14:00;;;;;;;4.43;4.03;;;15.90;99.90;;;;;;5057761;28;20455;-72
2021/09/21 10:16:27;;;;;;;11.20;3.80;;;16.00;99.90;;;;;;5060613;28;20487;-73
2021/09/21 10:18:55;;;;;;;5.40;3.57;;;16.20;99.90;;;;;;5062363;28;20464;-73
2021/09/21 10:21:32;;;;;;;4.30;3.77;;;16.30;99.90;;;;;;5062724;28;20483;-72
2021/09/21 10:24:03;;;;;;;4.40;3.17;;;16.60;99.90;;;;;;5059818;28;20490;-72
2021/09/21 10:26:33;;;;;;;5.53;3.47;;;16.70;99.90;;;;;;5058643;28;20467;-72
2021/09/21 10:29:00;;;;;;;8.73;2.93;;;16.70;99.90;;;;;;5059832;28;20460;-73
2021/09/21 10:31:29;;;;;;;2.70;2.50;;;16.70;99.90;;;;;;5057434;28;20487;-73
2021/09/21 10:33:56;;;;;;;3.00;2.80;;;16.70;99.90;;;;;;5056770;28;20498;-72
2021/09/21 10:36:29;;;;;;;3.50;2.70;;;16.60;99.90;;;;;;5055211;28;20513;-72
2021/09/21 10:38:58;;;;;;;3.83;2.80;;;16.70;99.90;;;;;;5056257;28;20447;-71
2021/09/21 10:41:28;;;;;;;3.93;3.07;;;16.80;99.90;;;;;;5054813;28;20452;-72
2021/09/21 10:44:08;;;;;;;3.30;3.00;;;16.80;99.90;;;;;;5054136;28;21005;-71
2021/09/21 10:46:47;;;;;;;3.63;3.27;;;16.70;99.90;;;;;;5054010;28;20459;-72
2021/09/21 10:49:29;;;;;;;6.00;3.60;;;16.80;99.90;;;;;;5053930;28;20503;-73
2021/09/21 10:51:59;;;;;;;5.60;2.80;;;17.10;99.90;;;;;;5056663;28;20541;-71
2021/09/21 10:54:31;;;;;;;5.43;3.40;;;17.20;99.90;;;;;;5060451;28;20455;-72
2021/09/21 10:57:10;;;;;;;3.83;2.90;;;17.10;99.90;;;;;;5059599;28;20466;-71
2021/09/21 10:59:38;;;;;;;4.40;3.37;;;17.00;99.90;;;;;;5060281;28;20567;-72
2021/09/21 11:02:07;;;;;;;4.67;3.20;;;16.90;99.90;;;;;;5061777;28;20781;-72
2021/09/21 11:04:44;;;;;;;5.57;2.93;;;16.80;99.90;;;;;;5061377;28;20466;-74
2021/09/21 11:07:13;;;;;;;5.00;3.33;;;16.70;99.90;;;;;;5061442;28;20450;-71
2021/09/21 11:09:40;;;;;;;4.20;3.10;;;16.60;99.90;;;;;;5060248;28;20811;-72
2021/09/21 11:12:09;;;;;;;3.10;2.57;;;16.50;99.90;;;;;;5060952;28;20788;-72
2021/09/21 11:14:39;;;;;;;3.73;3.40;;;16.40;99.90;;;;;;5060389;28;20880;-72
2021/09/21 11:17:06;;;;;;;7.20;3.47;;;16.40;99.90;;;;;;5061460;28;20447;-71
2021/09/21 11:19:33;;;;;;;3.30;3.00;;;16.40;99.90;;;;;;5058941;28;20451;-71
2021/09/21 11:22:02;;;;;;;3.10;2.80;;;16.30;99.90;;;;;;5059125;28;20466;-71
2021/09/21 11:24:30;;;;;;;5.50;2.97;;;16.30;99.90;;;;;;5059961;28;20807;-73
2021/09/21 11:26:58;;;;;;;5.60;4.00;;;16.20;99.90;;;;;;5063318;28;20466;-73
2021/09/21 11:29:25;;;;;;;2.80;2.60;;;16.20;99.90;;;;;;5060348;28;20456;-73
2021/09/21 11:31:53;;;;;;;12.60;3.80;;;16.20;99.90;;;;;;5060446;28;20471;-72
2021/09/21 11:34:21;;;;;;;7.03;3.53;;;16.20;99.90;;;;;;5061050;28;20787;-73
2021/09/21 11:36:50;;;;;;;4.80;3.17;;;16.10;99.90;;;;;;5062241;28;20590;-71
2021/09/21 11:39:17;;;;;;;3.93;2.97;;;16.00;99.90;;;;;;5062887;28;20459;-73
2021/09/21 11:41:44;;;;;;;3.70;3.30;;;16.20;99.90;;;;;;5058835;28;20459;-72
2021/09/21 11:44:10;;;;;;;5.20;3.40;;;16.30;99.90;;;;;;5060128;28;20750;-72
2021/09/21 11:46:37;;;;;;;4.27;3.87;;;16.40;99.90;;;;;;5060553;28;20464;-72
2021/09/21 11:49:05;;;;;;;5.13;3.37;;;16.50;99.90;;;;;;5061646;28;20466;-72
2021/09/21 11:51:35;;;;;;;3.43;3.13;;;16.60;99.90;;;;;;5063264;28;20485;-72
2021/09/21 11:54:02;;;;;;;4.73;3.23;;;16.60;99.90;;;;;;5061269;28;20947;-72
2021/09/21 11:56:28;;;;;;;4.23;2.93;;;16.80;99.90;;;;;;5060747;28;20458;-73
2021/09/21 11:58:59;;;;;;;7.33;3.73;;;16.90;99.90;;;;;;5059906;28;20459;-72
2021/09/21 12:01:26;;;;;;;5.40;3.53;;;16.80;99.90;;;;;;5060555;28;20487;-73
2021/09/21 12:03:55;;;;;;;3.53;3.20;;;16.90;99.90;;;;;;5061193;28;20470;-72
2021/09/21 12:06:33;;;;;;;4.53;3.13;;;16.90;99.90;;;;;;5061377;28;20440;-73
2021/09/21 12:09:01;;;;;;;3.77;3.47;;;17.00;99.90;;;;;;5058835;28;20455;-72
2021/09/21 12:11:28;;;;;;;4.63;3.60;;;16.80;99.90;;;;;;5057726;28;20495;-72
2021/09/21 12:13:57;;;;;;;4.30;3.63;;;16.70;99.90;;;;;;5058583;28;20542;-72
2021/09/21 12:16:28;;;;;;;3.33;3.03;;;16.70;99.90;;;;;;5058244;28;20495;-73
2021/09/21 12:18:58;;;;;;;4.27;2.90;;;16.60;99.90;;;;;;5058528;28;20448;-72
2021/09/21 12:21:29;;;;;;;4.90;3.40;;;16.60;99.90;;;;;;5059438;28;20444;-72
2021/09/21 12:23:57;;;;;;;4.73;3.23;;;16.60;99.90;;;;;;5060682;28;20916;-73
2021/09/21 12:26:24;;;;;;;5.40;3.10;;;16.50;99.90;;;;;;5059297;28;20471;-71
2021/09/21 12:28:52;;;;;;;4.60;3.33;;;16.50;99.90;;;;;;5058533;28;20465;-72
2021/09/21 12:31:22;;;;;;;4.10;3.70;;;16.50;99.90;;;;;;5060538;28;20483;-72
2021/09/21 12:33:50;;;;;;;3.50;2.70;;;16.40;99.90;;;;;;5057754;28;20459;-73
2021/09/21 12:36:21;;;;;;;4.17;3.40;;;16.40;99.90;;;;;;5058231;28;20466;-72
2021/09/21 12:39:05;;;;;;;4.00;3.60;;;16.30;99.90;;;;;;5058566;28;20447;-73
2021/09/21 12:41:35;;;;;;;5.17;2.83;;;16.30;99.90;;;;;;5060853;28;20761;-72
2021/09/21 12:44:06;;;;;;;3.30;2.53;;;16.30;99.90;;;;;;5058212;28;20797;-73
2021/09/21 12:46:33;;;;;;;7.13;3.03;;;16.40;99.90;;;;;;5059626;28;20446;-72
2021/09/21 12:49:00;;;;;;;4.10;3.07;;;16.40;99.90;;;;;;5057917;28;20451;-72
2021/09/21 12:51:32;;;;;;;6.10;3.17;;;16.40;99.90;;;;;;5056836;28;20506;-72
2021/09/21 12:54:00;;;;;;;3.70;3.40;;;16.40;99.90;;;;;;5058570;28;20440;-72
2021/09/21 12:56:30;;;;;;;3.17;2.80;;;16.20;99.90;;;;;;5058598;28;20487;-73
2021/09/21 12:59:04;;;;;;;4.00;3.00;;;16.10;99.90;;;;;;5057932;28;20828;-73
2021/09/21 13:01:31;;;;;;;3.67;3.03;;;16.00;99.90;;;;;;5059723;28;20446;-73
2021/09/21 13:03:58;;;;;;;5.57;3.17;;;16.00;99.90;;;;;;5058992;28;20467;-72